sensor_id;sensor_type;location;lat;lon;timestamp;temperature;humidity
58993;DHT22;44782;0.000;0.000;2023-09-18T00:01:31;23.90;66.00
58993;DHT22;44782;0.000;0.000;2023-09-18T00:03:47;23.90;66.00
58993;DHT22;44782;0.000;0.000;2023-09-18T00:06:03;23.90;66.00
58993;DHT22;44782;0.000;0.000;2023-09-18T00:08:19;23.90;66.00
58993;DHT22;44782;0.000;0.000;2023-09-18T00:10:40;23.80;65.90
58993;DHT22;44782;0.000;0.000;2023-09-18T00:12:57;23.90;65.70
58993;DHT22;44782;0.000;0.000;2023-09-18T00:15:12;23.80;65.80
58993;DHT22;44782;0.000;0.000;2023-09-18T00:17:28;23.80;65.80
58993;DHT22;44782;0.000;0.000;2023-09-18T00:19:43;23.80;65.80
58993;DHT22;44782;0.000;0.000;2023-09-18T00:21:59;23.80;65.80
58993;DHT22;44782;0.000;0.000;2023-09-18T00:24:16;23.80;65.80
58993;DHT22;44782;0.000;0.000;2023-09-18T00:26:32;23.80;65.70
58993;DHT22;44782;0.000;0.000;2023-09-18T00:28:48;23.80;65.80
58993;DHT22;44782;0.000;0.000;2023-09-18T00:31:03;23.80;65.70
58993;DHT22;44782;0.000;0.000;2023-09-18T00:33:19;23.80;65.80
58993;DHT22;44782;0.000;0.000;2023-09-18T00:35:35;23.80;65.70
58993;DHT22;44782;0.000;0.000;2023-09-18T00:37:51;23.80;65.70
58993;DHT22;44782;0.000;0.000;2023-09-18T00:40:07;23.80;65.60
58993;DHT22;44782;0.000;0.000;2023-09-18T00:42:23;23.70;65.50
58993;DHT22;44782;0.000;0.000;2023-09-18T00:44:40;23.80;65.50
58993;DHT22;44782;0.000;0.000;2023-09-18T00:46:56;23.80;65.50
58993;DHT22;44782;0.000;0.000;2023-09-18T00:49:12;23.80;65.60
58993;DHT22;44782;0.000;0.000;2023-09-18T00:51:29;23.80;65.60
58993;DHT22;44782;0.000;0.000;2023-09-18T00:53:47;23.80;65.70
58993;DHT22;44782;0.000;0.000;2023-09-18T00:56:03;23.70;65.60
58993;DHT22;44782;0.000;0.000;2023-09-18T00:58:19;23.80;65.90
58993;DHT22;44782;0.000;0.000;2023-09-18T01:00:35;23.80;65.90
58993;DHT22;44782;0.000;0.000;2023-09-18T01:02:51;23.70;65.80
58993;DHT22;44782;0.000;0.000;2023-09-18T01:05:06;23.70;65.80
58993;DHT22;44782;0.000;0.000;2023-09-18T01:07:22;23.70;65.80
58993;DHT22;44782;0.000;0.000;2023-09-18T01:09:38;23.70;65.80
58993;DHT22;44782;0.000;0.000;2023-09-18T01:12:11;23.70;65.80
58993;DHT22;44782;0.000;0.000;2023-09-18T01:17:00;23.70;65.80
58993;DHT22;44782;0.000;0.000;2023-09-18T01:19:55;23.70;65.50
58993;DHT22;44782;0.000;0.000;2023-09-18T01:22:10;23.70;65.40
58993;DHT22;44782;0.000;0.000;2023-09-18T01:24:26;23.70;65.80
58993;DHT22;44782;0.000;0.000;2023-09-18T01:26:41;23.70;65.80
58993;DHT22;44782;0.000;0.000;2023-09-18T01:28:57;23.70;65.80
58993;DHT22;44782;0.000;0.000;2023-09-18T01:31:12;23.70;65.80
58993;DHT22;44782;0.000;0.000;2023-09-18T01:33:29;23.70;65.70
58993;DHT22;44782;0.000;0.000;2023-09-18T01:35:45;23.70;65.80
58993;DHT22;44782;0.000;0.000;2023-09-18T01:38:01;23.70;65.60
58993;DHT22;44782;0.000;0.000;2023-09-18T01:40:19;23.70;65.70
58993;DHT22;44782;0.000;0.000;2023-09-18T01:42:35;23.70;65.70
58993;DHT22;44782;0.000;0.000;2023-09-18T01:44:52;23.70;65.80
58993;DHT22;44782;0.000;0.000;2023-09-18T01:47:12;23.70;65.80
58993;DHT22;44782;0.000;0.000;2023-09-18T01:49:40;23.70;65.80
58993;DHT22;44782;0.000;0.000;2023-09-18T01:51:56;23.70;65.60
58993;DHT22;44782;0.000;0.000;2023-09-18T01:54:12;23.70;65.80
58993;DHT22;44782;0.000;0.000;2023-09-18T01:56:27;23.70;66.50
58993;DHT22;44782;0.000;0.000;2023-09-18T01:58:43;23.70;65.80
58993;DHT22;44782;0.000;0.000;2023-09-18T02:01:00;23.70;65.80
58993;DHT22;44782;0.000;0.000;2023-09-18T02:03:16;23.70;65.80
58993;DHT22;44782;0.000;0.000;2023-09-18T02:05:33;23.70;65.80
58993;DHT22;44782;0.000;0.000;2023-09-18T02:10:14;23.60;65.70
58993;DHT22;44782;0.000;0.000;2023-09-18T02:12:30;23.60;65.80
58993;DHT22;44782;0.000;0.000;2023-09-18T02:14:46;23.60;65.70
58993;DHT22;44782;0.000;0.000;2023-09-18T02:17:01;23.60;65.70
58993;DHT22;44782;0.000;0.000;2023-09-18T02:19:18;23.70;65.80
58993;DHT22;44782;0.000;0.000;2023-09-18T02:21:36;23.60;65.70
58993;DHT22;44782;0.000;0.000;2023-09-18T02:23:53;23.60;65.70
58993;DHT22;44782;0.000;0.000;2023-09-18T02:26:09;23.60;65.70
58993;DHT22;44782;0.000;0.000;2023-09-18T02:28:25;23.60;65.70
58993;DHT22;44782;0.000;0.000;2023-09-18T02:30:41;23.60;65.70
58993;DHT22;44782;0.000;0.000;2023-09-18T02:32:56;23.60;65.60
58993;DHT22;44782;0.000;0.000;2023-09-18T02:35:15;23.60;65.70
58993;DHT22;44782;0.000;0.000;2023-09-18T02:37:30;23.60;65.70
58993;DHT22;44782;0.000;0.000;2023-09-18T02:39:46;23.60;65.60
58993;DHT22;44782;0.000;0.000;2023-09-18T02:42:01;23.60;65.60
58993;DHT22;44782;0.000;0.000;2023-09-18T02:44:17;23.60;65.60
58993;DHT22;44782;0.000;0.000;2023-09-18T02:46:33;23.60;65.60
58993;DHT22;44782;0.000;0.000;2023-09-18T02:48:49;23.60;65.70
58993;DHT22;44782;0.000;0.000;2023-09-18T02:51:05;23.60;65.60
58993;DHT22;44782;0.000;0.000;2023-09-18T02:53:22;23.60;65.60
58993;DHT22;44782;0.000;0.000;2023-09-18T02:55:38;23.60;65.60
58993;DHT22;44782;0.000;0.000;2023-09-18T02:57:54;23.60;65.60
58993;DHT22;44782;0.000;0.000;2023-09-18T03:00:10;23.60;65.60
58993;DHT22;44782;0.000;0.000;2023-09-18T03:02:26;23.60;65.70
58993;DHT22;44782;0.000;0.000;2023-09-18T03:04:41;23.60;65.60
58993;DHT22;44782;0.000;0.000;2023-09-18T03:06:57;23.60;65.60
58993;DHT22;44782;0.000;0.000;2023-09-18T03:09:13;23.60;65.60
58993;DHT22;44782;0.000;0.000;2023-09-18T03:11:28;23.60;65.60
58993;DHT22;44782;0.000;0.000;2023-09-18T03:13:45;23.60;65.60
58993;DHT22;44782;0.000;0.000;2023-09-18T03:16:04;23.60;65.60
58993;DHT22;44782;0.000;0.000;2023-09-18T03:18:20;23.60;65.60
58993;DHT22;44782;0.000;0.000;2023-09-18T03:20:35;23.60;65.60
58993;DHT22;44782;0.000;0.000;2023-09-18T03:22:51;23.50;65.60
58993;DHT22;44782;0.000;0.000;2023-09-18T03:25:07;23.60;65.60
58993;DHT22;44782;0.000;0.000;2023-09-18T03:27:23;23.60;65.60
58993;DHT22;44782;0.000;0.000;2023-09-18T03:29:43;23.50;65.50
58993;DHT22;44782;0.000;0.000;2023-09-18T03:31:59;23.50;65.50
58993;DHT22;44782;0.000;0.000;2023-09-18T03:34:15;23.50;65.50
58993;DHT22;44782;0.000;0.000;2023-09-18T03:36:30;23.50;65.60
58993;DHT22;44782;0.000;0.000;2023-09-18T03:38:46;23.50;65.50
58993;DHT22;44782;0.000;0.000;2023-09-18T03:41:01;23.50;65.50
58993;DHT22;44782;0.000;0.000;2023-09-18T03:43:17;23.50;65.50
58993;DHT22;44782;0.000;0.000;2023-09-18T03:45:33;23.50;65.50
58993;DHT22;44782;0.000;0.000;2023-09-18T03:47:48;23.50;65.50
58993;DHT22;44782;0.000;0.000;2023-09-18T03:50:09;23.50;65.50
58993;DHT22;44782;0.000;0.000;2023-09-18T03:52:24;23.50;65.50
58993;DHT22;44782;0.000;0.000;2023-09-18T03:54:40;23.50;65.50
58993;DHT22;44782;0.000;0.000;2023-09-18T03:56:56;23.50;65.50
58993;DHT22;44782;0.000;0.000;2023-09-18T03:59:13;23.50;65.40
58993;DHT22;44782;0.000;0.000;2023-09-18T04:01:28;23.50;65.40
58993;DHT22;44782;0.000;0.000;2023-09-18T04:03:44;23.50;65.40
58993;DHT22;44782;0.000;0.000;2023-09-18T04:05:59;23.50;65.40
58993;DHT22;44782;0.000;0.000;2023-09-18T04:08:15;23.50;65.40
58993;DHT22;44782;0.000;0.000;2023-09-18T04:10:31;23.50;65.40
58993;DHT22;44782;0.000;0.000;2023-09-18T04:12:46;23.50;65.40
58993;DHT22;44782;0.000;0.000;2023-09-18T04:15:02;23.50;65.40
58993;DHT22;44782;0.000;0.000;2023-09-18T04:17:19;23.50;65.40
58993;DHT22;44782;0.000;0.000;2023-09-18T04:19:39;23.50;65.40
58993;DHT22;44782;0.000;0.000;2023-09-18T04:21:55;23.50;65.40
58993;DHT22;44782;0.000;0.000;2023-09-18T04:24:10;23.50;65.40
58993;DHT22;44782;0.000;0.000;2023-09-18T04:26:27;23.40;65.30
58993;DHT22;44782;0.000;0.000;2023-09-18T04:28:46;23.50;65.30
58993;DHT22;44782;0.000;0.000;2023-09-18T04:31:02;23.40;65.30
58993;DHT22;44782;0.000;0.000;2023-09-18T04:33:17;23.40;65.30
58993;DHT22;44782;0.000;0.000;2023-09-18T04:35:33;23.40;65.30
58993;DHT22;44782;0.000;0.000;2023-09-18T04:37:49;23.40;65.30
58993;DHT22;44782;0.000;0.000;2023-09-18T04:40:06;23.40;65.30
58993;DHT22;44782;0.000;0.000;2023-09-18T04:42:25;23.40;65.30
58993;DHT22;44782;0.000;0.000;2023-09-18T04:44:41;23.40;65.30
58993;DHT22;44782;0.000;0.000;2023-09-18T04:46:57;23.40;65.30
58993;DHT22;44782;0.000;0.000;2023-09-18T04:49:13;23.40;65.30
58993;DHT22;44782;0.000;0.000;2023-09-18T04:51:32;23.40;65.30
58993;DHT22;44782;0.000;0.000;2023-09-18T04:53:48;23.40;65.10
58993;DHT22;44782;0.000;0.000;2023-09-18T04:56:04;23.40;65.20
58993;DHT22;44782;0.000;0.000;2023-09-18T04:58:20;23.40;65.30
58993;DHT22;44782;0.000;0.000;2023-09-18T05:00:35;23.40;65.20
58993;DHT22;44782;0.000;0.000;2023-09-18T05:02:52;23.40;65.20
58993;DHT22;44782;0.000;0.000;2023-09-18T05:05:08;23.40;65.20
58993;DHT22;44782;0.000;0.000;2023-09-18T05:07:27;23.40;65.20
58993;DHT22;44782;0.000;0.000;2023-09-18T05:09:42;23.40;65.20
58993;DHT22;44782;0.000;0.000;2023-09-18T05:11:58;23.40;65.20
58993;DHT22;44782;0.000;0.000;2023-09-18T05:14:15;23.40;65.30
58993;DHT22;44782;0.000;0.000;2023-09-18T05:16:31;23.40;65.20
58993;DHT22;44782;0.000;0.000;2023-09-18T05:18:47;23.40;65.20
58993;DHT22;44782;0.000;0.000;2023-09-18T05:21:02;23.40;65.30
58993;DHT22;44782;0.000;0.000;2023-09-18T05:23:20;23.40;66.10
58993;DHT22;44782;0.000;0.000;2023-09-18T05:25:35;23.40;65.40
58993;DHT22;44782;0.000;0.000;2023-09-18T05:27:54;23.40;65.40
58993;DHT22;44782;0.000;0.000;2023-09-18T05:30:14;23.40;65.50
58993;DHT22;44782;0.000;0.000;2023-09-18T05:32:30;23.40;65.50
58993;DHT22;44782;0.000;0.000;2023-09-18T05:34:46;23.40;65.40
58993;DHT22;44782;0.000;0.000;2023-09-18T05:37:01;23.40;65.40
58993;DHT22;44782;0.000;0.000;2023-09-18T05:39:17;23.30;65.30
58993;DHT22;44782;0.000;0.000;2023-09-18T05:41:32;23.40;65.30
58993;DHT22;44782;0.000;0.000;2023-09-18T05:43:48;23.40;65.20
58993;DHT22;44782;0.000;0.000;2023-09-18T05:46:04;23.30;65.10
58993;DHT22;44782;0.000;0.000;2023-09-18T05:48:19;23.30;65.20
58993;DHT22;44782;0.000;0.000;2023-09-18T05:50:35;23.30;65.10
58993;DHT22;44782;0.000;0.000;2023-09-18T05:52:51;23.30;65.10
58993;DHT22;44782;0.000;0.000;2023-09-18T05:55:08;23.30;65.10
58993;DHT22;44782;0.000;0.000;2023-09-18T05:57:23;23.30;65.10
58993;DHT22;44782;0.000;0.000;2023-09-18T05:59:39;23.30;65.10
58993;DHT22;44782;0.000;0.000;2023-09-18T06:01:55;23.30;65.10
58993;DHT22;44782;0.000;0.000;2023-09-18T06:04:11;23.30;65.20
58993;DHT22;44782;0.000;0.000;2023-09-18T06:06:28;23.30;65.20
58993;DHT22;44782;0.000;0.000;2023-09-18T06:08:43;23.30;65.20
58993;DHT22;44782;0.000;0.000;2023-09-18T06:10:59;23.30;65.10
58993;DHT22;44782;0.000;0.000;2023-09-18T06:13:15;23.30;65.20
58993;DHT22;44782;0.000;0.000;2023-09-18T06:15:31;23.30;65.20
58993;DHT22;44782;0.000;0.000;2023-09-18T06:17:47;23.30;65.10
58993;DHT22;44782;0.000;0.000;2023-09-18T06:20:02;23.20;65.00
58993;DHT22;44782;0.000;0.000;2023-09-18T06:22:19;23.30;65.10
58993;DHT22;44782;0.000;0.000;2023-09-18T06:24:35;23.20;65.00
58993;DHT22;44782;0.000;0.000;2023-09-18T06:26:51;23.30;65.00
58993;DHT22;44782;0.000;0.000;2023-09-18T06:29:07;23.30;65.00
58993;DHT22;44782;0.000;0.000;2023-09-18T06:31:24;23.20;65.00
58993;DHT22;44782;0.000;0.000;2023-09-18T06:33:40;23.20;65.00
58993;DHT22;44782;0.000;0.000;2023-09-18T06:35:55;23.30;65.00
58993;DHT22;44782;0.000;0.000;2023-09-18T06:38:11;23.30;65.00
58993;DHT22;44782;0.000;0.000;2023-09-18T06:40:28;23.20;65.00
58993;DHT22;44782;0.000;0.000;2023-09-18T06:42:43;23.20;65.00
58993;DHT22;44782;0.000;0.000;2023-09-18T06:44:59;23.20;65.00
58993;DHT22;44782;0.000;0.000;2023-09-18T06:47:16;23.20;65.00
58993;DHT22;44782;0.000;0.000;2023-09-18T06:49:32;23.20;64.90
58993;DHT22;44782;0.000;0.000;2023-09-18T06:51:47;23.20;65.00
58993;DHT22;44782;0.000;0.000;2023-09-18T06:54:03;23.20;64.90
58993;DHT22;44782;0.000;0.000;2023-09-18T06:56:19;23.20;64.90
58993;DHT22;44782;0.000;0.000;2023-09-18T06:58:35;23.20;64.90
58993;DHT22;44782;0.000;0.000;2023-09-18T07:00:51;23.20;64.90
58993;DHT22;44782;0.000;0.000;2023-09-18T07:03:06;23.20;64.90
58993;DHT22;44782;0.000;0.000;2023-09-18T07:05:25;23.20;64.90
58993;DHT22;44782;0.000;0.000;2023-09-18T07:07:40;23.20;64.90
58993;DHT22;44782;0.000;0.000;2023-09-18T07:09:56;23.20;64.90
58993;DHT22;44782;0.000;0.000;2023-09-18T07:12:11;23.20;64.80
58993;DHT22;44782;0.000;0.000;2023-09-18T07:14:27;23.20;64.80
58993;DHT22;44782;0.000;0.000;2023-09-18T07:16:43;23.20;64.80
58993;DHT22;44782;0.000;0.000;2023-09-18T07:18:59;23.20;64.80
58993;DHT22;44782;0.000;0.000;2023-09-18T07:21:14;23.20;64.80
58993;DHT22;44782;0.000;0.000;2023-09-18T07:23:30;23.20;64.80
58993;DHT22;44782;0.000;0.000;2023-09-18T07:25:47;23.20;64.80
58993;DHT22;44782;0.000;0.000;2023-09-18T07:28:05;23.20;64.70
58993;DHT22;44782;0.000;0.000;2023-09-18T07:30:21;23.20;64.70
58993;DHT22;44782;0.000;0.000;2023-09-18T07:32:39;23.20;64.70
58993;DHT22;44782;0.000;0.000;2023-09-18T07:34:55;23.20;64.70
58993;DHT22;44782;0.000;0.000;2023-09-18T07:37:11;23.20;64.80
58993;DHT22;44782;0.000;0.000;2023-09-18T07:39:26;23.20;64.70
58993;DHT22;44782;0.000;0.000;2023-09-18T07:41:42;23.20;64.70
58993;DHT22;44782;0.000;0.000;2023-09-18T07:43:58;23.20;64.70
58993;DHT22;44782;0.000;0.000;2023-09-18T07:46:14;23.20;64.70
58993;DHT22;44782;0.000;0.000;2023-09-18T07:48:30;23.10;64.60
58993;DHT22;44782;0.000;0.000;2023-09-18T07:50:45;23.20;64.60
58993;DHT22;44782;0.000;0.000;2023-09-18T07:53:02;23.20;64.70
58993;DHT22;44782;0.000;0.000;2023-09-18T07:55:18;23.20;64.60
58993;DHT22;44782;0.000;0.000;2023-09-18T07:57:34;23.10;64.60
58993;DHT22;44782;0.000;0.000;2023-09-18T07:59:50;23.10;64.50
58993;DHT22;44782;0.000;0.000;2023-09-18T08:02:06;23.10;64.50
58993;DHT22;44782;0.000;0.000;2023-09-18T08:04:22;23.10;64.60
58993;DHT22;44782;0.000;0.000;2023-09-18T08:06:37;23.10;64.60
58993;DHT22;44782;0.000;0.000;2023-09-18T08:08:53;23.10;64.60
58993;DHT22;44782;0.000;0.000;2023-09-18T08:11:09;23.10;64.60
58993;DHT22;44782;0.000;0.000;2023-09-18T08:13:25;23.10;64.50
58993;DHT22;44782;0.000;0.000;2023-09-18T08:15:40;23.10;64.50
58993;DHT22;44782;0.000;0.000;2023-09-18T08:17:56;23.10;64.50
58993;DHT22;44782;0.000;0.000;2023-09-18T08:20:11;23.10;64.50
58993;DHT22;44782;0.000;0.000;2023-09-18T08:22:28;23.10;64.50
58993;DHT22;44782;0.000;0.000;2023-09-18T08:24:43;23.20;64.50
58993;DHT22;44782;0.000;0.000;2023-09-18T08:27:01;23.10;64.50
58993;DHT22;44782;0.000;0.000;2023-09-18T08:29:16;23.10;64.40
58993;DHT22;44782;0.000;0.000;2023-09-18T08:31:33;23.10;64.50
58993;DHT22;44782;0.000;0.000;2023-09-18T08:33:48;23.10;64.40
58993;DHT22;44782;0.000;0.000;2023-09-18T08:36:04;23.10;64.40
58993;DHT22;44782;0.000;0.000;2023-09-18T08:38:20;23.10;64.40
58993;DHT22;44782;0.000;0.000;2023-09-18T08:40:35;23.10;64.40
58993;DHT22;44782;0.000;0.000;2023-09-18T08:42:52;23.10;64.40
58993;DHT22;44782;0.000;0.000;2023-09-18T08:45:09;23.10;64.30
58993;DHT22;44782;0.000;0.000;2023-09-18T08:47:26;23.10;64.30
58993;DHT22;44782;0.000;0.000;2023-09-18T08:49:43;23.10;64.30
58993;DHT22;44782;0.000;0.000;2023-09-18T08:51:59;23.10;64.30
58993;DHT22;44782;0.000;0.000;2023-09-18T08:54:15;23.10;64.20
58993;DHT22;44782;0.000;0.000;2023-09-18T08:56:32;23.10;64.20
58993;DHT22;44782;0.000;0.000;2023-09-18T08:58:49;23.10;64.10
58993;DHT22;44782;0.000;0.000;2023-09-18T09:01:05;23.10;64.20
58993;DHT22;44782;0.000;0.000;2023-09-18T09:03:26;23.10;64.10
58993;DHT22;44782;0.000;0.000;2023-09-18T09:05:42;23.10;64.10
58993;DHT22;44782;0.000;0.000;2023-09-18T09:07:58;23.10;64.10
58993;DHT22;44782;0.000;0.000;2023-09-18T09:10:13;23.10;64.10
58993;DHT22;44782;0.000;0.000;2023-09-18T09:12:52;23.20;64.10
58993;DHT22;44782;0.000;0.000;2023-09-18T09:15:09;23.10;63.60
58993;DHT22;44782;0.000;0.000;2023-09-18T09:17:24;23.10;64.00
58993;DHT22;44782;0.000;0.000;2023-09-18T09:19:40;23.20;64.00
58993;DHT22;44782;0.000;0.000;2023-09-18T09:21:59;23.20;64.70
58993;DHT22;44782;0.000;0.000;2023-09-18T09:24:16;23.20;63.90
58993;DHT22;44782;0.000;0.000;2023-09-18T09:26:32;23.20;63.90
58993;DHT22;44782;0.000;0.000;2023-09-18T09:28:48;23.20;63.90
58993;DHT22;44782;0.000;0.000;2023-09-18T09:31:05;23.20;63.90
58993;DHT22;44782;0.000;0.000;2023-09-18T09:33:24;23.20;63.90
58993;DHT22;44782;0.000;0.000;2023-09-18T09:35:40;23.20;63.80
58993;DHT22;44782;0.000;0.000;2023-09-18T09:38:14;23.20;63.90
58993;DHT22;44782;0.000;0.000;2023-09-18T09:40:31;23.20;63.70
58993;DHT22;44782;0.000;0.000;2023-09-18T09:42:47;23.20;64.00
58993;DHT22;44782;0.000;0.000;2023-09-18T09:45:04;23.20;63.90
58993;DHT22;44782;0.000;0.000;2023-09-18T09:47:20;23.20;63.90
58993;DHT22;44782;0.000;0.000;2023-09-18T09:49:47;23.20;63.90
58993;DHT22;44782;0.000;0.000;2023-09-18T09:52:03;23.20;63.70
58993;DHT22;44782;0.000;0.000;2023-09-18T09:54:33;23.20;63.90
58993;DHT22;44782;0.000;0.000;2023-09-18T09:56:56;23.30;63.70
58993;DHT22;44782;0.000;0.000;2023-09-18T09:59:13;23.20;63.90
58993;DHT22;44782;0.000;0.000;2023-09-18T10:01:31;23.20;63.90
58993;DHT22;44782;0.000;0.000;2023-09-18T10:03:47;23.20;63.80
58993;DHT22;44782;0.000;0.000;2023-09-18T10:06:04;23.20;63.80
58993;DHT22;44782;0.000;0.000;2023-09-18T10:08:27;23.30;63.90
58993;DHT22;44782;0.000;0.000;2023-09-18T10:10:47;23.30;63.70
58993;DHT22;44782;0.000;0.000;2023-09-18T10:13:12;23.30;63.70
58993;DHT22;44782;0.000;0.000;2023-09-18T10:15:34;23.30;63.70
58993;DHT22;44782;0.000;0.000;2023-09-18T10:17:56;23.30;63.80
58993;DHT22;44782;0.000;0.000;2023-09-18T10:20:16;23.30;63.80
58993;DHT22;44782;0.000;0.000;2023-09-18T10:22:42;23.30;63.90
58993;DHT22;44782;0.000;0.000;2023-09-18T10:25:10;23.30;63.80
58993;DHT22;44782;0.000;0.000;2023-09-18T10:27:29;23.30;63.80
58993;DHT22;44782;0.000;0.000;2023-09-18T10:29:49;23.30;63.80
58993;DHT22;44782;0.000;0.000;2023-09-18T10:32:07;23.30;64.00
58993;DHT22;44782;0.000;0.000;2023-09-18T10:34:24;23.30;63.90
58993;DHT22;44782;0.000;0.000;2023-09-18T10:36:43;23.30;63.90
58993;DHT22;44782;0.000;0.000;2023-09-18T10:39:02;23.30;63.90
58993;DHT22;44782;0.000;0.000;2023-09-18T10:41:23;23.30;63.90
58993;DHT22;44782;0.000;0.000;2023-09-18T10:43:43;23.30;64.00
58993;DHT22;44782;0.000;0.000;2023-09-18T10:45:58;23.30;64.00
58993;DHT22;44782;0.000;0.000;2023-09-18T10:48:15;23.30;64.00
58993;DHT22;44782;0.000;0.000;2023-09-18T10:50:31;23.40;64.10
58993;DHT22;44782;0.000;0.000;2023-09-18T10:52:47;23.40;64.10
58993;DHT22;44782;0.000;0.000;2023-09-18T10:55:05;23.40;64.10
58993;DHT22;44782;0.000;0.000;2023-09-18T10:57:23;23.40;64.00
58993;DHT22;44782;0.000;0.000;2023-09-18T10:59:46;23.40;64.10
58993;DHT22;44782;0.000;0.000;2023-09-18T11:02:05;23.40;64.00
58993;DHT22;44782;0.000;0.000;2023-09-18T11:04:21;23.40;64.10
58993;DHT22;44782;0.000;0.000;2023-09-18T11:09:26;23.40;63.80
58993;DHT22;44782;0.000;0.000;2023-09-18T11:11:47;23.40;64.60
58993;DHT22;44782;0.000;0.000;2023-09-18T11:14:12;23.40;64.00
58993;DHT22;44782;0.000;0.000;2023-09-18T11:16:35;23.40;64.10
58993;DHT22;44782;0.000;0.000;2023-09-18T11:21:15;23.40;64.00
58993;DHT22;44782;0.000;0.000;2023-09-18T11:23:37;23.40;64.10
58993;DHT22;44782;0.000;0.000;2023-09-18T11:25:58;23.40;64.00
58993;DHT22;44782;0.000;0.000;2023-09-18T11:28:15;23.40;64.00
58993;DHT22;44782;0.000;0.000;2023-09-18T11:30:36;23.40;64.00
58993;DHT22;44782;0.000;0.000;2023-09-18T11:32:55;23.50;64.10
58993;DHT22;44782;0.000;0.000;2023-09-18T11:35:13;23.50;64.20
58993;DHT22;44782;0.000;0.000;2023-09-18T11:37:34;23.40;64.20
58993;DHT22;44782;0.000;0.000;2023-09-18T11:39:50;23.50;64.30
58993;DHT22;44782;0.000;0.000;2023-09-18T11:42:13;23.50;64.10
58993;DHT22;44782;0.000;0.000;2023-09-18T11:44:32;23.50;63.90
58993;DHT22;44782;0.000;0.000;2023-09-18T11:46:52;23.50;64.10
58993;DHT22;44782;0.000;0.000;2023-09-18T11:49:08;23.50;64.00
58993;DHT22;44782;0.000;0.000;2023-09-18T11:51:26;23.50;63.90
58993;DHT22;44782;0.000;0.000;2023-09-18T11:53:43;23.50;63.80
58993;DHT22;44782;0.000;0.000;2023-09-18T11:55:59;23.50;63.90
58993;DHT22;44782;0.000;0.000;2023-09-18T11:58:15;23.50;63.90
58993;DHT22;44782;0.000;0.000;2023-09-18T12:00:31;23.50;63.80
58993;DHT22;44782;0.000;0.000;2023-09-18T12:02:47;23.50;63.70
58993;DHT22;44782;0.000;0.000;2023-09-18T12:05:14;23.50;63.60
58993;DHT22;44782;0.000;0.000;2023-09-18T12:07:34;23.50;63.30
58993;DHT22;44782;0.000;0.000;2023-09-18T12:09:49;23.50;63.50
58993;DHT22;44782;0.000;0.000;2023-09-18T12:12:06;23.50;63.60
58993;DHT22;44782;0.000;0.000;2023-09-18T12:14:22;23.50;63.50
58993;DHT22;44782;0.000;0.000;2023-09-18T12:16:39;23.50;63.50
58993;DHT22;44782;0.000;0.000;2023-09-18T12:18:56;23.50;63.50
58993;DHT22;44782;0.000;0.000;2023-09-18T12:21:13;23.50;63.50
58993;DHT22;44782;0.000;0.000;2023-09-18T12:23:29;23.50;63.50
58993;DHT22;44782;0.000;0.000;2023-09-18T12:25:57;23.50;63.50
58993;DHT22;44782;0.000;0.000;2023-09-18T12:28:15;23.50;63.40
58993;DHT22;44782;0.000;0.000;2023-09-18T12:30:33;23.50;63.50
58993;DHT22;44782;0.000;0.000;2023-09-18T12:32:50;23.50;63.40
58993;DHT22;44782;0.000;0.000;2023-09-18T12:35:06;23.50;63.30
58993;DHT22;44782;0.000;0.000;2023-09-18T12:37:22;23.50;63.30
58993;DHT22;44782;0.000;0.000;2023-09-18T12:39:38;23.50;63.20
58993;DHT22;44782;0.000;0.000;2023-09-18T12:41:54;23.50;63.20
58993;DHT22;44782;0.000;0.000;2023-09-18T12:44:10;23.50;63.20
58993;DHT22;44782;0.000;0.000;2023-09-18T12:46:27;23.50;63.20
58993;DHT22;44782;0.000;0.000;2023-09-18T12:48:44;23.50;63.20
58993;DHT22;44782;0.000;0.000;2023-09-18T12:51:04;23.50;63.10
58993;DHT22;44782;0.000;0.000;2023-09-18T12:53:22;23.50;63.10
58993;DHT22;44782;0.000;0.000;2023-09-18T12:55:38;23.50;63.00
58993;DHT22;44782;0.000;0.000;2023-09-18T12:57:55;23.50;63.80
58993;DHT22;44782;0.000;0.000;2023-09-18T13:00:11;23.50;63.00
58993;DHT22;44782;0.000;0.000;2023-09-18T13:02:27;23.50;63.00
58993;DHT22;44782;0.000;0.000;2023-09-18T13:04:52;23.50;62.90
58993;DHT22;44782;0.000;0.000;2023-09-18T13:07:14;23.60;62.60
58993;DHT22;44782;0.000;0.000;2023-09-18T13:09:30;23.50;62.60
58993;DHT22;44782;0.000;0.000;2023-09-18T13:11:56;23.50;62.70
58993;DHT22;44782;0.000;0.000;2023-09-18T13:14:12;23.60;62.20
58993;DHT22;44782;0.000;0.000;2023-09-18T13:16:28;23.50;62.50
58993;DHT22;44782;0.000;0.000;2023-09-18T13:18:46;23.50;62.50
58993;DHT22;44782;0.000;0.000;2023-09-18T13:21:14;23.50;62.20
58993;DHT22;44782;0.000;0.000;2023-09-18T13:23:30;23.60;62.00
58993;DHT22;44782;0.000;0.000;2023-09-18T13:25:46;23.50;62.30
58993;DHT22;44782;0.000;0.000;2023-09-18T13:28:04;23.60;62.20
58993;DHT22;44782;0.000;0.000;2023-09-18T13:30:20;23.50;62.10
58993;DHT22;44782;0.000;0.000;2023-09-18T13:32:37;23.50;62.10
58993;DHT22;44782;0.000;0.000;2023-09-18T13:34:53;23.60;62.20
58993;DHT22;44782;0.000;0.000;2023-09-18T13:37:08;23.60;62.20
58993;DHT22;44782;0.000;0.000;2023-09-18T13:39:24;23.60;62.10
58993;DHT22;44782;0.000;0.000;2023-09-18T13:41:40;23.60;62.10
58993;DHT22;44782;0.000;0.000;2023-09-18T13:43:59;23.50;62.00
58993;DHT22;44782;0.000;0.000;2023-09-18T13:46:14;23.60;62.10
58993;DHT22;44782;0.000;0.000;2023-09-18T13:48:30;23.60;62.10
58993;DHT22;44782;0.000;0.000;2023-09-18T13:50:46;23.60;62.00
58993;DHT22;44782;0.000;0.000;2023-09-18T13:53:03;23.60;62.00
58993;DHT22;44782;0.000;0.000;2023-09-18T13:55:22;23.50;62.00
58993;DHT22;44782;0.000;0.000;2023-09-18T13:57:38;23.50;62.00
58993;DHT22;44782;0.000;0.000;2023-09-18T13:59:55;23.50;62.00
58993;DHT22;44782;0.000;0.000;2023-09-18T14:02:12;23.50;62.00
58993;DHT22;44782;0.000;0.000;2023-09-18T14:04:27;23.50;62.00
58993;DHT22;44782;0.000;0.000;2023-09-18T14:06:44;23.50;62.00
58993;DHT22;44782;0.000;0.000;2023-09-18T14:09:00;23.50;62.00
58993;DHT22;44782;0.000;0.000;2023-09-18T14:11:15;23.50;62.00
58993;DHT22;44782;0.000;0.000;2023-09-18T14:13:32;23.50;62.10
58993;DHT22;44782;0.000;0.000;2023-09-18T14:15:48;23.50;62.00
58993;DHT22;44782;0.000;0.000;2023-09-18T14:18:04;23.50;62.00
58993;DHT22;44782;0.000;0.000;2023-09-18T14:20:20;23.50;62.00
58993;DHT22;44782;0.000;0.000;2023-09-18T14:22:38;23.50;62.10
58993;DHT22;44782;0.000;0.000;2023-09-18T14:24:54;23.50;62.00
58993;DHT22;44782;0.000;0.000;2023-09-18T14:27:09;23.50;62.10
58993;DHT22;44782;0.000;0.000;2023-09-18T14:29:27;23.50;62.10
58993;DHT22;44782;0.000;0.000;2023-09-18T14:31:43;23.50;62.10
58993;DHT22;44782;0.000;0.000;2023-09-18T14:33:59;23.50;62.10
58993;DHT22;44782;0.000;0.000;2023-09-18T14:36:18;23.50;62.10
58993;DHT22;44782;0.000;0.000;2023-09-18T14:38:34;23.50;62.00
58993;DHT22;44782;0.000;0.000;2023-09-18T14:40:49;23.40;62.00
58993;DHT22;44782;0.000;0.000;2023-09-18T14:43:05;23.50;62.10
58993;DHT22;44782;0.000;0.000;2023-09-18T14:45:21;23.50;62.10
58993;DHT22;44782;0.000;0.000;2023-09-18T14:47:36;23.50;62.10
58993;DHT22;44782;0.000;0.000;2023-09-18T14:49:52;23.50;62.10